Time;durP1;ratioP1;P1;durP2;ratioP2;P2;SDS_P1;SDS_P2;PMS_P1;PMS_P2;Temp;Humidity;BMP_temperature;BMP_pressure;BME280_temperature;BME280_humidity;BME280_pressure;Samples;Min_cycle;Max_cycle;Signal;HPM_P1;HPM_P2
2023/02/10 00:02:23;;;;;;;75.03;31.05;;;;;;;2.45;97.32;103286.81;5007124;28;20395;-77
2023/02/10 00:05:06;;;;;;;78.50;31.95;;;;;;;2.40;97.91;103291.25;4992348;28;20041;-77
2023/02/10 00:07:32;;;;;;;73.13;31.27;;;;;;;2.38;97.83;103293.03;4991731;28;20042;-78
2023/02/10 00:09:57;;;;;;;74.78;31.20;;;;;;;2.36;98.15;103297.34;5010164;28;20041;-78
2023/02/10 00:12:22;;;;;;;74.70;32.10;;;;;;;2.36;98.09;103297.34;4994621;28;20414;-83
2023/02/10 00:14:48;;;;;;;75.60;31.60;;;;;;;2.41;97.90;103301.47;4977604;28;20092;-78
2023/02/10 00:17:17;;;;;;;67.80;31.27;;;;;;;2.38;98.32;103298.97;4995736;28;20037;-77
2023/02/10 00:19:42;;;;;;;69.28;31.40;;;;;;;2.51;97.62;103302.88;4997036;28;20078;-78
2023/02/10 00:22:08;;;;;;;74.43;31.42;;;;;;;2.52;97.29;103299.44;5005870;28;20495;-78
2023/02/10 00:24:36;;;;;;;67.07;29.90;;;;;;;2.46;97.58;103301.31;4976999;28;20034;-77
2023/02/10 00:27:02;;;;;;;71.97;30.00;;;;;;;2.59;97.31;103301.81;4992129;28;20041;-79
2023/02/10 00:29:28;;;;;;;69.38;29.23;;;;;;;2.46;97.07;103302.16;5010809;28;20026;-77
2023/02/10 00:31:54;;;;;;;64.28;29.88;;;;;;;2.39;98.05;103303.19;4991501;28;20511;-82
2023/02/10 00:34:19;;;;;;;72.47;30.40;;;;;;;2.42;98.21;103302.28;4975321;28;20041;-79
2023/02/10 00:36:45;;;;;;;67.97;29.95;;;;;;;2.38;98.13;103304.09;4991196;28;20759;-77
2023/02/10 00:39:13;;;;;;;70.40;30.27;;;;;;;2.41;97.81;103301.47;4992605;28;20076;-78
2023/02/10 00:41:38;;;;;;;73.10;30.15;;;;;;;2.37;98.55;103302.41;4990793;28;20100;-78
2023/02/10 00:44:04;;;;;;;81.25;31.45;;;;;;;2.39;98.44;103313.44;4990656;28;20437;-77
2023/02/10 00:46:29;;;;;;;71.50;31.60;;;;;;;2.37;98.38;103307.53;4991468;28;20052;-77
2023/02/10 00:48:56;;;;;;;71.07;31.13;;;;;;;2.37;98.35;103299.84;4995368;28;20116;-77
2023/02/10 00:51:37;;;;;;;77.32;30.35;;;;;;;2.41;98.46;103301.47;4978024;28;20092;-77
2023/02/10 00:54:02;;;;;;;68.75;29.45;;;;;;;2.48;97.94;103308.06;5007368;28;20034;-80
2023/02/10 00:56:28;;;;;;;68.93;29.45;;;;;;;2.47;97.88;103316.66;5006127;28;20065;-77
2023/02/10 00:58:54;;;;;;;65.80;29.05;;;;;;;2.40;97.65;103314.31;4990391;28;20038;-78
2023/02/10 01:01:20;;;;;;;65.78;30.33;;;;;;;2.32;98.28;103317.91;4974721;28;20034;-84
2023/02/10 01:03:45;;;;;;;67.47;30.35;;;;;;;2.29;98.48;103315.41;5008924;28;20123;-77
2023/02/10 01:06:13;;;;;;;67.63;32.03;;;;;;;2.31;98.50;103316.22;4991086;28;20045;-77
2023/02/10 01:08:40;;;;;;;73.50;31.35;;;;;;;2.34;98.61;103317.88;4988099;28;20062;-80
2023/02/10 01:11:08;;;;;;;67.90;30.00;;;;;;;2.43;97.76;103315.06;4975490;28;20038;-77
2023/02/10 01:13:34;;;;;;;69.32;31.13;;;;;;;2.42;98.04;103315.94;5008210;28;20037;-77
2023/02/10 01:16:03;;;;;;;76.45;32.38;;;;;;;2.44;98.04;103316.72;4987217;28;20439;-78
2023/02/10 01:18:29;;;;;;;72.85;30.48;;;;;;;2.31;98.31;103317.94;4977339;28;20029;-77
2023/02/10 01:20:56;;;;;;;68.45;29.92;;;;;;;2.33;98.67;103316.16;4991491;28;20038;-77
2023/02/10 01:23:21;;;;;;;69.75;32.00;;;;;;;2.31;98.74;103323.88;4991326;28;20026;-77
2023/02/10 01:25:47;;;;;;;75.50;32.50;;;;;;;2.30;98.73;103326.50;4995340;28;20671;-77
2023/02/10 01:28:12;;;;;;;63.13;28.38;;;;;;;2.25;98.73;103328.34;4973783;28;20018;-78
2023/02/10 01:30:44;;;;;;;67.47;29.73;;;;;;;2.22;99.23;103331.81;4989458;28;20445;-77
2023/02/10 01:33:09;;;;;;;74.43;32.05;;;;;;;2.23;99.27;103337.78;4985686;28;20034;-77
2023/02/10 01:35:37;;;;;;;70.75;30.98;;;;;;;2.20;99.40;103340.41;4967950;28;20076;-78
2023/02/10 01:38:03;;;;;;;69.72;30.30;;;;;;;2.19;99.79;103339.59;4982158;28;20034;-78
2023/02/10 01:40:28;;;;;;;72.30;31.40;;;;;;;2.19;99.89;103342.16;4994638;28;20091;-77
2023/02/10 01:42:54;;;;;;;67.43;30.20;;;;;;;2.25;100.00;103341.16;4990009;28;20664;-77
2023/02/10 01:45:28;;;;;;;69.28;30.15;;;;;;;2.26;99.69;103340.25;5008390;28;20044;-79
2023/02/10 01:47:55;;;;;;;80.18;32.15;;;;;;;2.30;99.42;103344.44;5022519;28;20033;-77
2023/02/10 01:50:26;;;;;;;69.78;31.80;;;;;;;2.30;99.82;103334.19;4990352;28;20060;-78
2023/02/10 01:52:52;;;;;;;72.85;31.25;;;;;;;2.31;99.90;103336.69;5005132;28;20029;-81
2023/02/10 01:55:22;;;;;;;67.15;30.95;;;;;;;2.34;99.59;103338.34;4990785;28;20559;-80
2023/02/10 01:57:53;;;;;;;74.28;31.83;;;;;;;2.32;99.61;103337.56;4995421;28;20041;-79
2023/02/10 02:00:20;;;;;;;73.45;32.88;;;;;;;2.32;100.00;103338.38;4993637;28;20525;-78
2023/02/10 02:02:46;;;;;;;70.25;29.75;;;;;;;2.30;100.00;103335.03;5012111;28;20037;-79
2023/02/10 02:05:29;;;;;;;78.15;32.90;;;;;;;2.31;99.57;103348.66;4988850;28;20032;-77
2023/02/10 02:07:58;;;;;;;68.22;31.98;;;;;;;2.43;99.21;103339.81;4993067;28;20040;-77
2023/02/10 02:10:38;;;;;;;78.15;33.63;;;;;;;2.31;99.17;103339.25;4973464;28;20036;-78
2023/02/10 02:13:15;;;;;;;74.78;31.92;;;;;;;2.28;99.90;103348.72;5008341;28;20038;-79
2023/02/10 02:15:55;;;;;;;70.22;33.15;;;;;;;2.32;99.87;103353.75;4989743;28;20038;-78
2023/02/10 02:18:32;;;;;;;74.25;32.47;;;;;;;2.30;99.84;103354.69;4992479;28;20739;-79
2023/02/10 02:21:38;;;;;;;74.45;32.53;;;;;;;2.26;100.00;103358.19;5003873;28;20514;-78
2023/02/10 02:24:32;;;;;;;69.55;31.90;;;;;;;2.20;100.00;103355.78;4970779;28;20037;-78
2023/02/10 02:27:16;;;;;;;63.70;31.45;;;;;;;2.21;100.00;103352.34;4989378;28;20058;-78
2023/02/10 02:30:16;;;;;;;74.80;33.10;;;;;;;2.19;100.00;103357.50;4995552;28;20025;-77
2023/02/10 02:32:54;;;;;;;74.30;32.47;;;;;;;2.16;100.00;103362.69;4987859;28;20030;-77
2023/02/10 02:35:26;;;;;;;70.18;31.10;;;;;;;2.20;100.00;103366.84;5006772;28;20080;-78
2023/02/10 02:37:53;;;;;;;69.50;32.13;;;;;;;2.25;100.00;103366.75;5005316;28;20030;-79
2023/02/10 02:40:20;;;;;;;77.38;33.08;;;;;;;2.22;100.00;103359.13;5006274;28;20037;-77
2023/02/10 02:42:45;;;;;;;74.13;32.45;;;;;;;2.27;100.00;103363.25;4987829;28;20077;-79
2023/02/10 02:45:17;;;;;;;71.80;31.67;;;;;;;2.17;100.00;103366.09;4973168;28;20516;-79
2023/02/10 02:47:59;;;;;;;80.70;33.15;;;;;;;2.11;100.00;103367.09;4992045;28;20034;-77
2023/02/10 02:50:47;;;;;;;69.65;30.70;;;;;;;2.03;100.00;103366.44;4991404;28;20037;-78
2023/02/10 02:53:31;;;;;;;76.60;32.58;;;;;;;2.03;100.00;103371.56;4970304;28;20495;-78
2023/02/10 02:56:15;;;;;;;72.00;32.33;;;;;;;1.94;100.00;103377.72;4988548;28;20046;-78
2023/02/10 02:58:53;;;;;;;73.60;30.80;;;;;;;1.89;100.00;103372.75;4993525;28;22149;-80
2023/02/10 03:01:25;;;;;;;69.35;32.95;;;;;;;1.84;100.00;103377.13;4987083;28;20121;-77
2023/02/10 03:03:54;;;;;;;67.47;30.75;;;;;;;1.80;100.00;103360.16;5006128;28;20037;-78
2023/02/10 03:06:19;;;;;;;68.72;30.73;;;;;;;1.75;100.00;103360.28;4989870;28;20042;-77
2023/02/10 03:08:45;;;;;;;72.07;32.17;;;;;;;1.73;100.00;103358.63;4997657;28;20041;-77
2023/02/10 03:11:10;;;;;;;71.57;31.60;;;;;;;1.73;100.00;103350.94;4993282;28;20034;-78
2023/02/10 03:13:36;;;;;;;69.68;33.33;;;;;;;1.64;100.00;103349.47;5015620;28;20042;-81
2023/02/10 03:16:02;;;;;;;72.20;32.40;;;;;;;1.65;100.00;103335.78;5009769;28;20033;-78
2023/02/10 03:18:28;;;;;;;76.65;32.55;;;;;;;1.65;100.00;103329.81;4996150;28;20025;-77
2023/02/10 03:20:53;;;;;;;73.65;32.63;;;;;;;1.57;100.00;103329.19;4994548;28;20061;-78
2023/02/10 03:23:18;;;;;;;77.75;32.63;;;;;;;1.54;100.00;103335.19;4998595;28;20030;-80
2023/02/10 03:25:45;;;;;;;73.28;33.25;;;;;;;1.44;100.00;103331.16;4994269;28;20029;-80
2023/02/10 03:28:11;;;;;;;71.07;31.52;;;;;;;1.35;100.00;103327.91;5007854;28;20026;-77
2023/02/10 03:30:37;;;;;;;82.30;33.45;;;;;;;1.31;100.00;103323.75;4995938;28;20401;-82
2023/02/10 03:33:03;;;;;;;67.55;29.40;;;;;;;1.25;100.00;103325.63;5010255;28;20038;-81
2023/02/10 03:35:29;;;;;;;74.00;31.20;;;;;;;1.21;100.00;103324.03;5011098;28;20087;-79
2023/02/10 03:37:54;;;;;;;74.32;29.35;;;;;;;1.15;100.00;103330.09;5012755;28;20038;-77
2023/02/10 03:40:20;;;;;;;69.68;31.92;;;;;;;1.12;100.00;103340.38;4994297;28;20037;-78
2023/02/10 03:42:45;;;;;;;71.32;31.15;;;;;;;1.07;100.00;103335.34;4994152;28;20034;-79
2023/02/10 03:45:11;;;;;;;74.28;30.63;;;;;;;1.06;100.00;103336.25;5009131;28;20034;-77
2023/02/10 03:47:36;;;;;;;65.35;30.23;;;;;;;1.04;100.00;103343.09;4992977;28;20049;-79
2023/02/10 03:50:02;;;;;;;68.93;30.98;;;;;;;1.00;100.00;103340.63;5009731;28;20021;-78
2023/02/10 03:52:27;;;;;;;76.00;31.40;;;;;;;0.96;100.00;103344.94;5009126;28;20038;-78
2023/02/10 03:54:53;;;;;;;73.32;31.65;;;;;;;0.91;100.00;103355.28;5012039;28;20029;-77
2023/02/10 03:57:18;;;;;;;74.30;32.15;;;;;;;0.86;100.00;103353.69;4983103;28;20046;-77
2023/02/10 03:59:44;;;;;;;73.47;33.10;;;;;;;0.83;100.00;103358.84;4996557;28;20025;-79
2023/02/10 04:02:10;;;;;;;79.25;35.17;;;;;;;0.77;100.00;103358.13;4975912;28;20499;-81
2023/02/10 04:04:35;;;;;;;71.50;31.98;;;;;;;0.72;100.00;103366.75;5026642;28;20034;-78
2023/02/10 04:07:02;;;;;;;73.72;31.05;;;;;;;0.67;100.00;103358.31;4992300;28;20037;-77
2023/02/10 04:09:28;;;;;;;77.47;31.98;;;;;;;0.64;100.00;103359.22;4993260;28;20033;-77
2023/02/10 04:11:54;;;;;;;73.38;32.15;;;;;;;0.56;100.00;103361.06;4989769;28;20120;-80
2023/02/10 04:14:20;;;;;;;68.70;30.92;;;;;;;0.51;100.00;103375.63;4992817;28;20025;-78
2023/02/10 04:16:45;;;;;;;72.45;30.50;;;;;;;0.45;100.00;103368.06;4992877;28;20041;-78
2023/02/10 04:19:11;;;;;;;79.85;32.53;;;;;;;0.39;100.00;103376.69;5010115;28;20037;-77
2023/02/10 04:21:36;;;;;;;72.78;32.42;;;;;;;0.33;100.00;103369.97;5008802;28;20045;-79
2023/02/10 04:24:02;;;;;;;80.47;34.13;;;;;;;0.29;100.00;103373.44;4992686;28;20034;-79
2023/02/10 04:26:27;;;;;;;79.65;31.60;;;;;;;0.26;100.00;103370.94;4990678;28;21908;-78
2023/02/10 04:28:53;;;;;;;73.82;31.40;;;;;;;0.23;100.00;103372.69;5008923;28;20744;-77
2023/02/10 04:31:18;;;;;;;76.82;30.60;;;;;;;0.19;100.00;103377.03;5005181;28;20483;-77
2023/02/10 04:33:44;;;;;;;76.35;33.03;;;;;;;0.17;100.00;103381.31;4979976;28;20037;-80
2023/02/10 04:36:09;;;;;;;72.90;32.55;;;;;;;0.12;100.00;103383.94;4996102;28;20632;-79
2023/02/10 04:38:35;;;;;;;81.65;32.08;;;;;;;0.08;100.00;103382.31;4994955;28;20037;-79
2023/02/10 04:41:02;;;;;;;76.85;32.88;;;;;;;0.03;100.00;103386.63;4988147;28;20117;-81
2023/02/10 04:43:28;;;;;;;89.18;36.15;;;;;;;-0.03;100.00;103385.03;5001213;28;20399;-78
2023/02/10 04:46:16;;;;;;;85.15;34.78;;;;;;;-0.07;100.00;103390.22;4977290;28;20040;-79
2023/02/10 04:48:42;;;;;;;80.30;31.83;;;;;;;-0.10;100.00;103387.69;4991635;28;20037;-82
2023/02/10 04:51:11;;;;;;;76.22;32.58;;;;;;;-0.17;100.00;103393.75;5009455;28;20414;-78
2023/02/10 04:53:39;;;;;;;76.78;32.33;;;;;;;-0.17;100.00;103386.97;4992700;28;20045;-78
2023/02/10 04:56:05;;;;;;;79.75;32.45;;;;;;;-0.18;100.00;103389.53;4976795;28;20038;-78
2023/02/10 04:58:31;;;;;;;79.30;33.53;;;;;;;-0.24;100.00;103378.56;5009024;28;20104;-80
2023/02/10 05:00:57;;;;;;;89.40;34.50;;;;;;;-0.26;100.00;103375.19;4974267;28;20037;-78
2023/02/10 05:03:23;;;;;;;88.28;33.78;;;;;;;-0.26;100.00;103377.72;4993266;28;20372;-78
2023/02/10 05:05:51;;;;;;;88.90;36.35;;;;;;;-0.28;100.00;103373.53;4975319;28;20036;-78
2023/02/10 05:08:19;;;;;;;86.85;34.28;;;;;;;-0.25;100.00;103378.56;4981540;28;20120;-82
2023/02/10 05:10:47;;;;;;;88.30;34.95;;;;;;;-0.33;100.00;103371.03;4994988;28;20505;-79
2023/02/10 05:13:12;;;;;;;86.88;34.58;;;;;;;-0.36;100.00;103378.72;4987234;28;20033;-80
2023/02/10 05:15:38;;;;;;;86.47;34.47;;;;;;;-0.41;100.00;103383.06;4993678;28;20596;-78
2023/02/10 05:18:03;;;;;;;86.68;35.03;;;;;;;-0.42;100.00;103378.81;4995145;28;20058;-78
2023/02/10 05:20:29;;;;;;;83.30;34.28;;;;;;;-0.45;100.00;103377.16;4990484;28;20403;-79
2023/02/10 05:23:00;;;;;;;83.18;34.72;;;;;;;-0.47;100.00;103380.56;4992558;28;20041;-78
2023/02/10 05:25:26;;;;;;;83.15;34.50;;;;;;;-0.50;100.00;103378.09;4995438;28;20042;-80
2023/02/10 05:27:52;;;;;;;87.82;34.45;;;;;;;-0.53;100.00;103385.75;4991293;28;20038;-78
2023/02/10 05:30:18;;;;;;;86.30;35.17;;;;;;;-0.55;100.00;103392.59;4993086;28;20026;-78
2023/02/10 05:32:43;;;;;;;83.57;34.22;;;;;;;-0.58;100.00;103398.59;5006319;28;20834;-82
2023/02/10 05:35:10;;;;;;;84.93;33.42;;;;;;;-0.62;100.00;103399.50;4989819;28;20030;-78
2023/02/10 05:37:35;;;;;;;88.78;36.15;;;;;;;-0.65;100.00;103391.88;5010956;28;20040;-79
2023/02/10 05:40:01;;;;;;;91.28;35.28;;;;;;;-0.67;100.00;103391.88;5009327;28;20029;-78
2023/02/10 05:42:27;;;;;;;87.32;35.85;;;;;;;-0.68;100.00;103385.13;4989757;28;20410;-79
2023/02/10 05:44:52;;;;;;;87.32;34.00;;;;;;;-0.69;100.00;103391.06;4992002;28;20037;-81
2023/02/10 05:47:18;;;;;;;80.85;34.40;;;;;;;-0.72;100.00;103401.28;4992032;28;20041;-78
2023/02/10 05:49:43;;;;;;;95.53;35.83;;;;;;;-0.74;100.00;103408.13;4995196;28;20491;-81
2023/02/10 05:52:09;;;;;;;87.47;34.28;;;;;;;-0.76;100.00;103404.75;5006258;28;20038;-78
2023/02/10 05:54:34;;;;;;;92.28;35.40;;;;;;;-0.75;100.00;103410.69;4979341;28;20026;-78
2023/02/10 05:57:08;;;;;;;91.13;35.92;;;;;;;-0.77;100.00;103403.06;5006158;28;20029;-78
2023/02/10 05:59:34;;;;;;;102.25;37.78;;;;;;;-0.76;100.00;103403.91;4986372;28;20031;-79
2023/02/10 06:01:59;;;;;;;105.45;40.17;;;;;;;-0.78;100.00;103414.13;4994654;28;20553;-78
2023/02/10 06:04:25;;;;;;;117.57;42.53;;;;;;;-0.82;100.00;103409.94;4992585;28;20044;-79
2023/02/10 06:06:50;;;;;;;112.22;40.97;;;;;;;-0.83;100.00;103415.88;4974563;28;20076;-78
2023/02/10 06:09:16;;;;;;;118.22;41.47;;;;;;;-0.84;100.00;103419.28;5009240;28;20095;-78
2023/02/10 06:11:41;;;;;;;116.47;40.97;;;;;;;-0.88;100.00;103410.84;4990272;28;20042;-79
2023/02/10 06:14:07;;;;;;;112.28;41.80;;;;;;;-0.90;100.00;103410.03;5008048;28;20104;-78
2023/02/10 06:16:33;;;;;;;105.43;39.95;;;;;;;-0.91;100.00;103412.56;4990040;28;20117;-79
2023/02/10 06:18:58;;;;;;;96.35;36.30;;;;;;;-0.92;100.00;103405.78;4990147;28;20376;-81
2023/02/10 06:21:24;;;;;;;97.22;39.38;;;;;;;-0.94;100.00;103404.97;4974040;28;20041;-78
2023/02/10 06:23:50;;;;;;;89.32;37.15;;;;;;;-0.96;100.00;103407.56;5007495;28;20108;-80
2023/02/10 06:26:15;;;;;;;95.60;37.80;;;;;;;-0.96;100.00;103405.00;4988095;28;20042;-78
2023/02/10 06:28:41;;;;;;;95.68;37.40;;;;;;;-1.02;100.00;103405.03;4990674;28;20403;-81
2023/02/10 06:31:07;;;;;;;84.88;34.97;;;;;;;-1.05;100.00;103417.84;5003457;28;20049;-78
2023/02/10 06:33:35;;;;;;;93.28;36.42;;;;;;;-1.09;100.00;103427.22;5022417;28;20533;-79
2023/02/10 06:36:04;;;;;;;98.03;36.45;;;;;;;-1.09;100.00;103441.63;4992390;28;20045;-78
2023/02/10 06:38:31;;;;;;;99.07;37.95;;;;;;;-1.12;100.00;103437.41;4990988;28;20398;-78
2023/02/10 06:40:56;;;;;;;101.50;38.47;;;;;;;-1.13;100.00;103443.38;4985927;28;20061;-78
2023/02/10 06:43:22;;;;;;;96.28;36.45;;;;;;;-1.16;100.00;103440.03;5012259;28;20030;-78
2023/02/10 06:45:47;;;;;;;91.85;37.25;;;;;;;-1.17;100.00;103444.25;5010501;28;20060;-77
2023/02/10 06:48:13;;;;;;;92.75;36.38;;;;;;;-1.18;100.00;103443.41;4998635;28;20187;-80
2023/02/10 06:50:39;;;;;;;87.18;35.80;;;;;;;-1.17;100.00;103441.72;4974104;28;20509;-79
2023/02/10 06:53:05;;;;;;;101.10;38.10;;;;;;;-1.17;100.00;103444.25;4989158;28;20526;-78
2023/02/10 06:55:30;;;;;;;97.20;38.38;;;;;;;-1.17;100.00;103436.63;4993927;28;20038;-79
2023/02/10 06:57:58;;;;;;;96.95;39.70;;;;;;;-1.15;100.00;103439.16;4994224;28;20045;-78
2023/02/10 07:00:24;;;;;;;93.72;38.53;;;;;;;-1.11;100.00;103431.47;4992120;28;20112;-80
2023/02/10 07:02:49;;;;;;;105.55;40.28;;;;;;;-1.11;100.00;103431.47;4994633;28;20117;-78
2023/02/10 07:05:16;;;;;;;97.60;39.10;;;;;;;-1.10;100.00;103428.06;5000853;28;20052;-78
2023/02/10 07:07:41;;;;;;;108.68;42.92;;;;;;;-1.06;100.00;103422.06;5009097;28;20096;-80
2023/02/10 07:10:08;;;;;;;106.18;40.65;;;;;;;-1.05;100.00;103428.88;4995147;28;20029;-78
2023/02/10 07:12:34;;;;;;;108.53;41.03;;;;;;;-1.02;100.00;103425.44;4992502;28;20100;-77
2023/02/10 07:14:59;;;;;;;105.97;40.05;;;;;;;-1.03;100.00;103423.75;4989820;28;20034;-77
2023/02/10 07:17:25;;;;;;;112.85;47.53;;;;;;;-1.01;100.00;103424.56;5010966;28;20043;-81
2023/02/10 07:19:50;;;;;;;104.03;44.00;;;;;;;-1.03;100.00;103427.13;4993266;28;20026;-78
2023/02/10 07:22:15;;;;;;;123.75;48.83;;;;;;;-0.95;100.00;103418.56;4987023;28;20038;-80
2023/02/10 07:24:41;;;;;;;125.15;48.25;;;;;;;-0.95;100.00;103418.56;4993442;28;20041;-80
2023/02/10 07:27:06;;;;;;;139.82;53.28;;;;;;;-0.93;100.00;103416.84;4978252;28;20529;-81
2023/02/10 07:29:32;;;;;;;122.38;50.03;;;;;;;-0.88;100.00;103426.13;5006752;28;20037;-78
2023/02/10 07:31:58;;;;;;;111.03;42.25;;;;;;;-0.76;100.00;103430.22;4988729;28;20407;-79
2023/02/10 07:34:24;;;;;;;114.75;45.90;;;;;;;-0.67;100.00;103426.75;4994766;28;20092;-78
2023/02/10 07:36:53;;;;;;;130.75;53.67;;;;;;;-0.63;100.00;103428.38;4992158;28;20049;-77
2023/02/10 07:39:23;;;;;;;131.60;52.28;;;;;;;-0.52;100.00;103435.91;4995303;28;20439;-80
2023/02/10 07:41:50;;;;;;;120.15;48.33;;;;;;;-0.53;100.00;103437.59;4993835;28;20065;-77
2023/02/10 07:44:18;;;;;;;113.70;44.92;;;;;;;-0.53;100.00;103437.59;4995018;28;20037;-77
2023/02/10 07:46:44;;;;;;;120.72;48.00;;;;;;;-0.48;100.00;103448.56;4995268;28;20044;-79
2023/02/10 07:49:09;;;;;;;108.88;45.70;;;;;;;-0.45;100.00;103455.34;4993079;28;20030;-78
2023/02/10 07:51:35;;;;;;;118.70;43.20;;;;;;;-0.43;100.00;103449.38;4992825;28;20427;-77
2023/02/10 07:54:00;;;;;;;107.93;40.83;;;;;;;-0.35;100.00;103461.19;4998660;28;20038;-78
2023/02/10 07:56:26;;;;;;;100.95;40.40;;;;;;;-0.35;100.00;103456.09;4978243;28;20037;-80
2023/02/10 07:58:51;;;;;;;107.10;40.95;;;;;;;-0.33;100.00;103450.09;5012838;28;20033;-77
2023/02/10 08:01:17;;;;;;;108.38;41.83;;;;;;;-0.24;100.00;103454.22;4995998;28;20037;-77
2023/02/10 08:03:42;;;;;;;112.30;43.28;;;;;;;-0.20;100.00;103458.41;5009983;28;20030;-81
2023/02/10 08:06:08;;;;;;;105.20;40.65;;;;;;;-0.15;100.00;103455.78;4997351;28;20046;-79
2023/02/10 08:08:34;;;;;;;115.28;48.55;;;;;;;-0.07;100.00;103459.09;4978266;28;20034;-77
2023/02/10 08:10:59;;;;;;;110.95;48.45;;;;;;;0.02;100.00;103464.06;5010612;28;20038;-81
2023/02/10 08:13:25;;;;;;;109.35;42.13;;;;;;;0.21;100.00;103464.63;4993960;28;20037;-78
2023/02/10 08:15:57;;;;;;;114.03;43.08;;;;;;;0.38;100.00;103459.25;4993500;28;20049;-77
2023/02/10 08:18:23;;;;;;;104.45;39.88;;;;;;;0.45;100.00;103477.84;5011650;28;20037;-77
2023/02/10 08:20:48;;;;;;;106.78;39.83;;;;;;;0.49;100.00;103470.16;4991842;28;20394;-78
2023/02/10 08:23:16;;;;;;;111.55;41.05;;;;;;;0.61;100.00;103470.81;4994140;28;20053;-80
2023/02/10 08:25:41;;;;;;;104.43;41.03;;;;;;;0.70;100.00;103466.38;4995486;28;20898;-78
2023/02/10 08:28:07;;;;;;;103.57;40.22;;;;;;;0.85;100.00;103475.50;4982137;28;20034;-79
2023/02/10 08:30:32;;;;;;;99.90;37.92;;;;;;;0.93;100.00;103475.34;4992285;28;20399;-79
2023/02/10 08:32:58;;;;;;;105.32;39.28;;;;;;;1.17;100.00;103474.06;5012109;28;20080;-80
2023/02/10 08:35:24;;;;;;;103.63;39.00;;;;;;;1.47;100.00;103476.84;5013049;28;20033;-78
2023/02/10 08:37:50;;;;;;;92.78;36.92;;;;;;;1.83;100.00;103472.69;4996252;28;20041;-79
2023/02/10 08:40:15;;;;;;;95.90;37.92;;;;;;;2.16;100.00;103464.28;5010053;28;20045;-80
2023/02/10 08:42:42;;;;;;;87.65;35.78;;;;;;;2.57;100.00;103472.69;4995168;28;20042;-79
2023/02/10 08:45:08;;;;;;;88.15;33.92;;;;;;;2.83;100.00;103465.16;4992966;28;20050;-79
2023/02/10 08:47:34;;;;;;;80.18;33.20;;;;;;;3.26;99.24;103461.41;4994316;28;20042;-85
2023/02/10 08:50:01;;;;;;;78.70;33.03;;;;;;;3.41;96.57;103475.53;5009493;28;20466;-81
2023/02/10 08:52:28;;;;;;;74.88;32.90;;;;;;;3.64;95.58;103466.31;4991368;28;20038;-80
2023/02/10 08:54:54;;;;;;;82.68;35.95;;;;;;;3.81;94.60;103455.56;4993469;28;20033;-78
2023/02/10 08:57:19;;;;;;;82.95;33.13;;;;;;;3.90;94.20;103462.97;4998814;28;20053;-78
2023/02/10 08:59:45;;;;;;;75.90;32.15;;;;;;;4.04;93.40;103458.22;4996024;28;20045;-77
2023/02/10 09:02:13;;;;;;;74.38;32.35;;;;;;;3.92;93.08;103468.03;4991214;28;20034;-80
2023/02/10 09:04:39;;;;;;;76.47;34.10;;;;;;;3.75;94.35;103465.97;5009763;28;20029;-77
2023/02/10 09:07:05;;;;;;;74.68;32.75;;;;;;;3.48;95.59;103465.91;4992151;28;20045;-78
2023/02/10 09:09:30;;;;;;;88.95;34.42;;;;;;;3.38;96.12;103470.47;4977078;28;20025;-77
2023/02/10 09:12:07;;;;;;;79.07;33.70;;;;;;;3.30;96.63;103475.00;4993746;28;20497;-79
2023/02/10 09:14:32;;;;;;;85.53;33.85;;;;;;;3.31;96.97;103485.22;4991896;28;20029;-77
2023/02/10 09:17:00;;;;;;;78.07;31.33;;;;;;;3.35;97.04;103485.13;4973929;28;20556;-77
2023/02/10 09:19:25;;;;;;;83.85;34.38;;;;;;;3.16;97.40;103487.34;4991449;28;20038;-79
2023/02/10 09:21:51;;;;;;;77.22;33.15;;;;;;;3.15;98.32;103481.41;5003972;28;20088;-78
2023/02/10 09:24:21;;;;;;;80.60;33.85;;;;;;;3.12;98.20;103489.16;4970834;28;20029;-78
2023/02/10 09:26:46;;;;;;;79.20;32.17;;;;;;;3.03;99.08;103490.28;4985507;28;20038;-77
2023/02/10 09:29:12;;;;;;;86.72;32.63;;;;;;;3.19;99.00;103482.16;4991537;28;20125;-78
2023/02/10 09:31:38;;;;;;;82.72;34.38;;;;;;;3.42;98.95;103487.47;4987473;28;20046;-81
2023/02/10 09:34:04;;;;;;;73.30;31.10;;;;;;;3.45;98.79;103482.25;4992126;28;20587;-77
2023/02/10 09:36:30;;;;;;;81.65;31.90;;;;;;;3.56;98.33;103483.66;4988546;28;20030;-78
2023/02/10 09:38:56;;;;;;;86.35;34.38;;;;;;;3.64;97.83;103486.84;4983841;28;20041;-84
2023/02/10 09:41:31;;;;;;;91.35;36.75;;;;;;;3.68;97.49;103493.56;5001709;28;20881;-81
2023/02/10 09:44:02;;;;;;;88.13;34.17;;;;;;;3.51;97.33;103494.91;4976629;28;20025;-78
2023/02/10 09:46:58;;;;;;;88.53;33.88;;;;;;;3.50;97.26;103493.22;5011055;28;20034;-80
2023/02/10 09:50:01;;;;;;;92.30;36.00;;;;;;;3.36;98.18;103503.03;5003315;28;20092;-78
2023/02/10 09:53:02;;;;;;;89.45;34.33;;;;;;;3.45;98.72;103482.25;4988049;28;20048;-78
2023/02/10 09:55:35;;;;;;;87.60;35.20;;;;;;;3.54;99.43;103476.00;4990297;28;20545;-80
2023/02/10 09:58:13;;;;;;;94.30;35.55;;;;;;;3.73;99.23;103473.75;4988146;28;20393;-77
2023/02/10 10:00:42;;;;;;;96.90;36.55;;;;;;;3.84;97.22;103481.09;4996908;28;20034;-78
2023/02/10 10:03:15;;;;;;;89.93;37.25;;;;;;;3.80;98.19;103482.94;4996665;28;20034;-78
2023/02/10 10:06:03;;;;;;;92.80;37.35;;;;;;;3.89;97.85;103486.94;5022960;28;20030;-77
2023/02/10 10:08:52;;;;;;;92.13;36.60;;;;;;;3.99;97.01;103488.34;4992134;28;20405;-80
2023/02/10 10:11:37;;;;;;;101.60;38.60;;;;;;;4.07;96.64;103486.41;4974774;28;20034;-78
2023/02/10 10:14:03;;;;;;;101.38;38.42;;;;;;;3.98;96.73;103491.81;4992077;28;20120;-77
2023/02/10 10:16:57;;;;;;;94.10;37.03;;;;;;;4.15;96.74;103496.41;4994142;28;20061;-80
2023/02/10 10:19:44;;;;;;;94.35;38.03;;;;;;;4.05;96.89;103487.31;5010014;28;20723;-78
2023/02/10 10:22:32;;;;;;;91.75;36.53;;;;;;;4.11;97.30;103494.84;4987180;28;20490;-78
2023/02/10 10:25:20;;;;;;;96.97;37.80;;;;;;;4.23;96.69;103485.91;5013104;28;20131;-77
2023/02/10 10:28:07;;;;;;;96.05;40.55;;;;;;;4.28;96.33;103495.13;4995266;28;20042;-79
2023/02/10 10:30:45;;;;;;;98.30;39.42;;;;;;;4.31;95.81;103493.34;5010225;28;20542;-78
2023/02/10 10:33:22;;;;;;;102.13;41.53;;;;;;;4.35;96.09;103495.81;4980715;28;20042;-78
2023/02/10 10:35:48;;;;;;;98.90;37.63;;;;;;;4.34;96.61;103490.69;4978758;28;20041;-77
2023/02/10 10:38:17;;;;;;;115.13;44.83;;;;;;;4.48;96.00;103503.91;5009000;28;20544;-78
2023/02/10 10:40:45;;;;;;;129.13;50.05;;;;;;;4.50;94.85;103491.84;5008460;28;20057;-78
2023/02/10 10:43:20;;;;;;;109.00;41.08;;;;;;;4.47;95.53;103497.94;5013228;28;20022;-77
2023/02/10 10:45:49;;;;;;;104.45;40.58;;;;;;;4.43;95.40;103500.69;4995736;28;20045;-79
2023/02/10 10:48:21;;;;;;;93.95;35.15;;;;;;;4.48;94.76;103497.06;5008929;28;20449;-78
2023/02/10 10:50:47;;;;;;;96.85;37.35;;;;;;;4.46;94.73;103490.28;4992410;28;20093;-81
2023/02/10 10:53:22;;;;;;;95.95;36.97;;;;;;;4.47;94.16;103485.09;5009356;28;20026;-79
2023/02/10 10:55:50;;;;;;;97.47;40.55;;;;;;;4.56;94.77;103498.53;4991479;28;20033;-77
2023/02/10 10:58:31;;;;;;;102.07;40.13;;;;;;;4.63;94.07;103490.59;4992498;28;20042;-77
2023/02/10 11:00:59;;;;;;;116.97;44.10;;;;;;;4.61;93.56;103484.63;4993592;28;20061;-78
2023/02/10 11:03:25;;;;;;;111.28;41.78;;;;;;;4.61;93.64;103484.63;5009401;28;20037;-79
2023/02/10 11:05:59;;;;;;;86.35;33.50;;;;;;;4.77;93.38;103479.00;5005633;28;20023;-77
2023/02/10 11:08:53;;;;;;;76.85;33.03;;;;;;;4.71;92.29;103482.63;4992933;28;20053;-77
2023/02/10 11:11:36;;;;;;;77.60;33.70;;;;;;;4.78;92.25;103468.63;4971921;28;20056;-77
2023/02/10 11:14:02;;;;;;;;;;;;;;;4.78;92.06;103460.91;4991982;28;20036;-77
2023/02/10 11:16:28;;;;;;;86.68;34.90;;;;;;;4.79;91.26;103462.63;5027583;28;19961;-76
2023/02/10 11:19:01;;;;;;;75.30;30.77;;;;;;;4.98;89.52;103462.81;4998638;28;20068;-80